Time;durP1;ratioP1;P1;durP2;ratioP2;P2;SDS_P1;SDS_P2;PMS_P1;PMS_P2;Temp;Humidity;BMP_temperature;BMP_pressure;BME280_temperature;BME280_humidity;BME280_pressure;Samples;Min_cycle;Max_cycle;Signal;HPM_P1;HPM_P2
2022/09/12 00:00:45;;;;;;;1999.90;999.90;;;16.60;99.90;;;;;;5044138;28;20451;-67
2022/09/12 00:03:10;;;;;;;1999.90;999.90;;;16.60;99.90;;;;;;5044844;28;20474;-69
2022/09/12 00:05:44;;;;;;;1999.90;999.90;;;16.60;99.90;;;;;;5032265;28;20706;-68
2022/09/12 00:08:10;;;;;;;1999.90;999.90;;;16.60;99.90;;;;;;5029514;28;20250;-69
2022/09/12 00:10:38;;;;;;;1999.90;999.90;;;16.50;99.90;;;;;;5035201;28;20417;-69
2022/09/12 00:13:04;;;;;;;1999.90;999.90;;;16.50;99.90;;;;;;5024041;28;20415;-67
2022/09/12 00:15:29;;;;;;;1999.90;999.90;;;16.40;99.90;;;;;;5030847;28;20806;-68
2022/09/12 00:17:55;;;;;;;1999.90;999.90;;;16.40;99.90;;;;;;5031743;28;20207;-68
2022/09/12 00:20:21;;;;;;;1999.90;999.90;;;16.40;99.90;;;;;;5032195;28;20182;-67
2022/09/12 00:22:46;;;;;;;1999.90;999.90;;;16.40;99.90;;;;;;5032282;28;20168;-67
2022/09/12 00:25:12;;;;;;;1999.90;999.90;;;16.30;99.90;;;;;;5030560;28;20194;-68
2022/09/12 00:27:38;;;;;;;1999.90;999.90;;;16.20;99.90;;;;;;5042419;28;20176;-69
2022/09/12 00:30:04;;;;;;;1999.90;999.90;;;16.20;99.90;;;;;;5030052;28;20169;-68
2022/09/12 00:32:29;;;;;;;1999.90;999.90;;;16.20;99.90;;;;;;5026368;28;20166;-68
2022/09/12 00:34:55;;;;;;;1999.90;999.90;;;16.20;99.90;;;;;;5030905;28;20533;-68
2022/09/12 00:37:21;;;;;;;1999.90;999.90;;;16.10;99.90;;;;;;5031512;28;20576;-68
2022/09/12 00:39:46;;;;;;;1999.90;999.90;;;16.20;99.90;;;;;;5044737;28;20207;-69
2022/09/12 00:42:12;;;;;;;1999.90;999.90;;;16.10;99.90;;;;;;5044034;28;20171;-68
2022/09/12 00:44:37;;;;;;;1999.90;999.90;;;16.00;99.90;;;;;;5026580;28;20230;-67
2022/09/12 00:47:12;;;;;;;1999.90;999.90;;;15.90;99.90;;;;;;5031133;28;20183;-67
2022/09/12 00:49:42;;;;;;;1999.90;999.90;;;15.90;99.90;;;;;;5031874;28;20167;-68
2022/09/12 00:52:15;;;;;;;1999.90;999.90;;;15.80;99.90;;;;;;5024293;28;20414;-68
2022/09/12 00:54:58;;;;;;;1999.90;999.90;;;15.80;99.90;;;;;;5030240;28;20438;-68
2022/09/12 00:57:29;;;;;;;1999.90;999.90;;;15.70;99.90;;;;;;5030670;28;20771;-68
2022/09/12 01:00:00;;;;;;;1999.90;999.90;;;15.70;99.90;;;;;;5038732;28;20408;-67
2022/09/12 01:02:26;;;;;;;1999.90;999.90;;;15.70;99.90;;;;;;5038177;28;20418;-68
2022/09/12 01:04:52;;;;;;;1999.90;999.90;;;15.70;99.90;;;;;;5030297;28;20453;-68
2022/09/12 01:07:20;;;;;;;1999.90;999.90;;;15.70;99.90;;;;;;5031377;28;20415;-69
2022/09/12 01:09:46;;;;;;;1999.90;999.90;;;15.60;99.90;;;;;;5041693;28;20183;-69
2022/09/12 01:12:14;;;;;;;1999.90;999.90;;;15.60;99.90;;;;;;5031742;28;20763;-67
2022/09/12 01:14:40;;;;;;;1999.90;999.90;;;15.50;99.90;;;;;;5030410;28;20925;-68
2022/09/12 01:17:06;;;;;;;1999.90;999.90;;;15.50;99.90;;;;;;5030909;28;20410;-68
2022/09/12 01:20:00;;;;;;;1999.90;999.90;;;15.40;99.90;;;;;;5031596;28;20628;-68
2022/09/12 01:22:59;;;;;;;1999.90;999.90;;;15.40;99.90;;;;;;5026191;28;20907;-68
2022/09/12 01:26:05;;;;;;;1999.90;999.90;;;15.50;99.90;;;;;;5040327;28;20528;-68
2022/09/12 01:28:43;;;;;;;1999.90;999.90;;;15.50;99.90;;;;;;4934780;28;20806;-68
2022/09/12 01:31:11;;;;;;;1999.90;999.90;;;15.50;99.90;;;;;;5030935;28;20403;-67
2022/09/12 01:34:01;;;;;;;1999.90;999.90;;;15.50;99.90;;;;;;5031505;28;20423;-68
2022/09/12 01:36:48;;;;;;;1999.90;999.90;;;15.50;99.90;;;;;;5026137;28;20471;-68
2022/09/12 01:39:44;;;;;;;1999.90;999.90;;;15.40;99.90;;;;;;5038398;28;20459;-68
2022/09/12 01:42:23;;;;;;;1999.90;999.90;;;15.40;99.90;;;;;;5030553;28;20435;-69
2022/09/12 01:45:15;;;;;;;1999.90;999.90;;;15.40;99.90;;;;;;5033734;28;20602;-68
2022/09/12 01:47:44;;;;;;;1999.90;999.90;;;15.40;99.90;;;;;;5032595;28;20413;-68
2022/09/12 01:50:23;;;;;;;1999.90;999.90;;;15.40;99.90;;;;;;5028195;28;20922;-69
2022/09/12 01:53:27;;;;;;;1999.90;999.90;;;15.30;99.90;;;;;;5039783;28;20436;-67
2022/09/12 01:56:08;;;;;;;1999.90;999.90;;;15.30;99.90;;;;;;4974971;28;20542;-68
2022/09/12 01:59:04;;;;;;;1999.90;999.90;;;15.30;99.90;;;;;;5032632;28;20468;-67
2022/09/12 02:01:40;;;;;;;1999.90;999.90;;;15.30;99.90;;;;;;5040547;28;20423;-67
2022/09/12 02:04:21;;;;;;;1999.90;999.90;;;15.10;99.90;;;;;;5019136;28;20488;-68
2022/09/12 02:07:02;;;;;;;1999.90;999.90;;;15.10;99.90;;;;;;5032937;28;20418;-68
2022/09/12 02:09:34;;;;;;;1999.90;999.90;;;15.10;99.90;;;;;;5034656;28;20412;-68
2022/09/12 02:12:02;;;;;;;1999.90;999.90;;;15.10;99.90;;;;;;5034736;28;20491;-68
2022/09/12 02:14:33;;;;;;;1999.90;999.90;;;15.00;99.90;;;;;;5034502;28;20419;-68
2022/09/12 02:17:10;;;;;;;1999.90;999.90;;;15.00;99.90;;;;;;5033483;28;20421;-68
2022/09/12 02:19:44;;;;;;;1999.90;999.90;;;15.00;99.90;;;;;;5034639;28;20460;-67
2022/09/12 02:22:14;;;;;;;1999.90;999.90;;;15.00;99.90;;;;;;5026984;28;20446;-67
2022/09/12 02:24:44;;;;;;;1999.90;999.90;;;15.00;99.90;;;;;;5044358;28;20411;-68
2022/09/12 02:27:21;;;;;;;1999.90;999.90;;;14.90;99.90;;;;;;5045150;28;20845;-68
2022/09/12 02:29:48;;;;;;;1999.90;999.90;;;14.90;99.90;;;;;;5045474;28;20436;-68
2022/09/12 02:32:29;;;;;;;1999.90;999.90;;;14.90;99.90;;;;;;5045668;28;20398;-69
2022/09/12 02:35:13;;;;;;;1999.90;999.90;;;14.90;99.90;;;;;;5034770;28;20450;-68
2022/09/12 02:38:08;;;;;;;1999.90;999.90;;;14.90;99.90;;;;;;5030906;28;20412;-68
2022/09/12 02:40:34;;;;;;;1999.90;999.90;;;14.90;99.90;;;;;;5029833;28;20414;-67
2022/09/12 02:43:03;;;;;;;1999.90;999.90;;;14.90;99.90;;;;;;5034128;28;20436;-67
2022/09/12 02:45:31;;;;;;;1999.90;999.90;;;15.00;99.90;;;;;;5031981;28;20459;-70
2022/09/12 02:48:14;;;;;;;1999.90;999.90;;;14.90;99.90;;;;;;5034661;28;21009;-69
2022/09/12 02:50:40;;;;;;;1999.90;999.90;;;14.90;99.90;;;;;;5044689;28;20412;-68
2022/09/12 02:53:08;;;;;;;1999.90;999.90;;;14.90;99.90;;;;;;5038189;28;20415;-69
2022/09/12 02:55:35;;;;;;;1999.90;999.90;;;14.90;99.90;;;;;;5040856;28;20449;-68
2022/09/12 02:58:03;;;;;;;1999.90;999.90;;;14.90;99.90;;;;;;5044084;28;20474;-69
2022/09/12 03:00:55;;;;;;;1999.90;999.90;;;14.80;99.90;;;;;;5045656;28;20442;-68
2022/09/12 03:03:39;;;;;;;1999.90;999.90;;;14.70;99.90;;;;;;5039586;28;20759;-69
2022/09/12 03:06:44;;;;;;;1999.90;999.90;;;14.60;99.90;;;;;;5032207;28;20544;-70
2022/09/12 03:09:15;;;;;;;1999.90;999.90;;;14.60;99.90;;;;;;5022358;28;20765;-68
2022/09/12 03:11:59;;;;;;;1999.90;999.90;;;14.60;99.90;;;;;;5033690;28;20950;-67
2022/09/12 03:14:43;;;;;;;1999.90;999.90;;;14.60;99.90;;;;;;5033487;28;20490;-68
2022/09/12 03:17:17;;;;;;;1999.90;999.90;;;14.60;99.90;;;;;;5032530;28;20416;-67
2022/09/12 03:20:02;;;;;;;1999.90;999.90;;;14.60;99.90;;;;;;5033260;28;20457;-68
2022/09/12 03:22:49;;;;;;;1999.90;999.90;;;14.40;99.90;;;;;;5033524;28;20403;-68
2022/09/12 03:25:25;;;;;;;1999.90;999.90;;;14.60;99.90;;;;;;5031884;28;20472;-68
2022/09/12 03:28:08;;;;;;;1999.90;999.90;;;14.50;99.90;;;;;;5032843;28;20427;-68
2022/09/12 03:30:41;;;;;;;1999.90;999.90;;;14.50;99.90;;;;;;5033288;28;20399;-67
2022/09/12 03:33:11;;;;;;;1999.90;999.90;;;14.50;99.90;;;;;;5025229;28;20745;-68
2022/09/12 03:35:36;;;;;;;1999.90;999.90;;;14.40;99.90;;;;;;5027747;28;20465;-68
2022/09/12 03:38:02;;;;;;;1999.90;999.90;;;14.30;99.90;;;;;;5032646;28;20451;-68
2022/09/12 03:40:28;;;;;;;1999.90;999.90;;;14.40;99.90;;;;;;5033006;28;20254;-68
2022/09/12 03:42:53;;;;;;;1999.90;999.90;;;14.40;99.90;;;;;;5037647;28;20438;-68
2022/09/12 03:45:19;;;;;;;1999.90;999.90;;;14.40;99.90;;;;;;5042696;28;20203;-68
2022/09/12 03:47:45;;;;;;;1999.90;999.90;;;14.50;99.90;;;;;;5039250;28;20645;-68
2022/09/12 03:50:10;;;;;;;1999.90;999.90;;;14.40;99.90;;;;;;5033967;28;20220;-67
2022/09/12 03:52:36;;;;;;;1999.90;999.90;;;14.30;99.90;;;;;;5034863;28;20174;-69
2022/09/12 03:55:02;;;;;;;1999.90;999.90;;;14.30;99.90;;;;;;5032953;28;20206;-68
2022/09/12 03:57:28;;;;;;;1999.90;999.90;;;14.30;99.90;;;;;;5032164;28;20648;-67
2022/09/12 03:59:53;;;;;;;1999.90;999.90;;;14.20;99.90;;;;;;5032407;28;20230;-67
2022/09/12 04:02:19;;;;;;;1999.90;999.90;;;14.20;99.90;;;;;;5032489;28;20208;-68
2022/09/12 04:04:46;;;;;;;1999.90;999.90;;;14.20;99.90;;;;;;5031267;28;20539;-68
2022/09/12 04:07:12;;;;;;;1999.90;999.90;;;14.20;99.90;;;;;;5031822;28;20593;-68
2022/09/12 04:09:38;;;;;;;1999.90;999.90;;;14.20;99.90;;;;;;5032364;28;20460;-68
2022/09/12 04:12:04;;;;;;;1999.90;999.90;;;14.20;99.90;;;;;;5032716;28;20220;-68
2022/09/12 04:14:30;;;;;;;1999.90;999.90;;;14.20;99.90;;;;;;5032283;28;20590;-69
2022/09/12 04:16:55;;;;;;;1999.90;999.90;;;14.20;99.90;;;;;;5030517;28;20424;-68
2022/09/12 04:19:22;;;;;;;1999.90;999.90;;;14.30;99.90;;;;;;5032169;28;20555;-67
2022/09/12 04:21:48;;;;;;;1999.90;999.90;;;14.30;99.90;;;;;;5032396;28;20643;-67
2022/09/12 04:24:13;;;;;;;1999.90;999.90;;;14.20;99.90;;;;;;5032245;28;20471;-68
2022/09/12 04:26:39;;;;;;;1999.90;999.90;;;14.30;99.90;;;;;;5036236;28;20199;-67
2022/09/12 04:29:04;;;;;;;1999.90;999.90;;;14.30;99.90;;;;;;5035815;28;20529;-68
2022/09/12 04:31:30;;;;;;;1999.90;999.90;;;14.20;99.90;;;;;;5032205;28;20175;-68
2022/09/12 04:33:57;;;;;;;1999.90;999.90;;;14.20;99.90;;;;;;5032016;28;20191;-68
2022/09/12 04:36:24;;;;;;;1999.90;999.90;;;14.30;99.90;;;;;;5030311;28;20205;-68
2022/09/12 04:38:51;;;;;;;1999.90;999.90;;;14.30;99.90;;;;;;5031756;28;20549;-68
2022/09/12 04:41:19;;;;;;;1999.90;999.90;;;14.30;99.90;;;;;;5025394;28;20763;-68
2022/09/12 04:43:45;;;;;;;1999.90;999.90;;;14.30;99.90;;;;;;5032172;28;20411;-68
2022/09/12 04:46:14;;;;;;;1999.90;999.90;;;14.20;99.90;;;;;;5034663;28;20955;-65
2022/09/12 04:48:39;;;;;;;1999.90;999.90;;;14.00;99.90;;;;;;5037777;28;20565;-67
2022/09/12 04:51:29;;;;;;;1999.90;999.90;;;14.20;99.90;;;;;;5031900;28;20889;-68
2022/09/12 04:53:58;;;;;;;1999.90;999.90;;;14.20;99.90;;;;;;5020283;28;20281;-68
2022/09/12 04:56:25;;;;;;;1999.90;999.90;;;14.20;99.90;;;;;;5030136;28;20946;-68
2022/09/12 04:58:51;;;;;;;1999.90;999.90;;;14.20;99.90;;;;;;5031686;28;20470;-68
2022/09/12 05:01:18;;;;;;;1999.90;999.90;;;14.20;99.90;;;;;;5032039;28;20402;-68
2022/09/12 05:03:45;;;;;;;1999.90;999.90;;;14.20;99.90;;;;;;5031643;28;20538;-68
2022/09/12 05:06:14;;;;;;;1999.90;999.90;;;14.20;99.90;;;;;;5033689;28;21024;-68
2022/09/12 05:08:40;;;;;;;1999.90;999.90;;;14.20;99.90;;;;;;5038634;28;20425;-67
2022/09/12 05:11:10;;;;;;;1999.90;999.90;;;14.20;99.90;;;;;;5031622;28;20416;-67
2022/09/12 05:13:36;;;;;;;1999.90;999.90;;;14.10;99.90;;;;;;5044730;28;20986;-69
2022/09/12 05:16:03;;;;;;;1999.90;999.90;;;14.00;99.90;;;;;;5035675;28;20520;-68
2022/09/12 05:18:33;;;;;;;1999.90;999.90;;;14.10;99.90;;;;;;5035468;28;20485;-68
2022/09/12 05:21:01;;;;;;;1999.90;999.90;;;14.00;99.90;;;;;;5035547;28;20416;-68
2022/09/12 05:23:27;;;;;;;1999.90;999.90;;;14.00;99.90;;;;;;5035604;28;20425;-67
2022/09/12 05:25:55;;;;;;;1999.90;999.90;;;14.10;99.90;;;;;;5033935;28;20439;-68
2022/09/12 05:28:22;;;;;;;1999.90;999.90;;;14.20;99.90;;;;;;5035313;28;20409;-67
2022/09/12 05:30:47;;;;;;;1999.90;999.90;;;14.30;99.90;;;;;;5035270;28;20416;-68
2022/09/12 05:33:14;;;;;;;1999.90;999.90;;;14.40;99.90;;;;;;5035256;28;20420;-68
2022/09/12 05:35:40;;;;;;;1999.90;999.90;;;14.50;99.90;;;;;;5033899;28;20229;-67
2022/09/12 05:38:06;;;;;;;1999.90;999.90;;;14.50;99.90;;;;;;5034877;28;20493;-68
2022/09/12 05:40:33;;;;;;;1999.90;999.90;;;14.40;99.90;;;;;;5035275;28;20177;-67
2022/09/12 05:42:59;;;;;;;1999.90;999.90;;;14.50;99.90;;;;;;5035418;28;20425;-67
2022/09/12 05:45:25;;;;;;;1999.90;999.90;;;14.50;99.90;;;;;;5033501;28;20529;-68
2022/09/12 05:47:52;;;;;;;1999.90;999.90;;;14.60;99.90;;;;;;5041494;28;20454;-67
2022/09/12 05:50:18;;;;;;;1999.90;999.90;;;14.60;99.90;;;;;;5041752;28;20797;-68
2022/09/12 05:52:44;;;;;;;1999.90;999.90;;;14.70;99.90;;;;;;5035148;28;20422;-68
2022/09/12 05:55:10;;;;;;;1999.90;999.90;;;14.80;99.90;;;;;;5033592;28;21553;-68
2022/09/12 05:57:36;;;;;;;1999.90;999.90;;;14.80;99.90;;;;;;5034479;28;20181;-69
2022/09/12 06:00:03;;;;;;;1999.90;999.90;;;14.80;99.90;;;;;;5025515;28;20185;-68
2022/09/12 06:02:28;;;;;;;1999.90;999.90;;;14.90;99.90;;;;;;5035308;28;20181;-69
2022/09/12 06:04:54;;;;;;;1999.90;999.90;;;14.90;99.90;;;;;;5043796;28;20505;-68
2022/09/12 06:07:19;;;;;;;1999.90;999.90;;;14.90;99.90;;;;;;5036584;28;20180;-69
2022/09/12 06:09:45;;;;;;;1999.90;999.90;;;14.90;99.90;;;;;;5031972;28;20203;-67
2022/09/12 06:12:10;;;;;;;1999.90;999.90;;;15.00;99.90;;;;;;5034836;28;20200;-68
2022/09/12 06:14:36;;;;;;;1999.90;999.90;;;15.00;99.90;;;;;;5033659;28;20185;-68
2022/09/12 06:17:02;;;;;;;1999.90;999.90;;;15.00;99.90;;;;;;5033412;28;20189;-68
2022/09/12 06:19:27;;;;;;;1999.90;999.90;;;15.10;99.90;;;;;;5034558;28;20207;-68
2022/09/12 06:21:53;;;;;;;1999.90;999.90;;;15.20;99.90;;;;;;5034477;28;20690;-68
2022/09/12 06:24:20;;;;;;;1999.90;999.90;;;15.20;99.90;;;;;;5034244;28;20231;-68
2022/09/12 06:26:47;;;;;;;1999.90;999.90;;;15.30;99.90;;;;;;5032641;28;20205;-68
2022/09/12 06:29:13;;;;;;;1999.90;999.90;;;15.40;99.90;;;;;;5034265;28;20892;-68
2022/09/12 06:31:40;;;;;;;1999.90;999.90;;;15.40;99.90;;;;;;5034303;28;20514;-68
2022/09/12 06:34:08;;;;;;;1999.90;999.90;;;15.50;99.90;;;;;;5023025;28;20897;-68
2022/09/12 06:36:38;;;;;;;1999.90;999.90;;;15.50;99.90;;;;;;5032617;28;20484;-68
2022/09/12 06:39:12;;;;;;;1999.90;999.90;;;15.50;99.90;;;;;;5034043;28;21048;-68
2022/09/12 06:41:38;;;;;;;1999.90;999.90;;;15.60;99.90;;;;;;5034455;28;20400;-69
2022/09/12 06:44:05;;;;;;;1999.90;999.90;;;15.60;99.90;;;;;;5034138;28;20495;-68
2022/09/12 06:46:31;;;;;;;1999.90;999.90;;;15.70;99.90;;;;;;5032134;28;20208;-68
2022/09/12 06:48:59;;;;;;;1999.90;999.90;;;15.70;99.90;;;;;;5033912;28;20420;-68
2022/09/12 06:51:26;;;;;;;1999.90;999.90;;;15.80;99.90;;;;;;5038875;28;20417;-68
2022/09/12 06:53:55;;;;;;;1999.90;999.90;;;15.80;99.90;;;;;;5030035;28;20508;-67
2022/09/12 06:56:26;;;;;;;1999.90;999.90;;;15.90;99.90;;;;;;5032007;28;20524;-69
2022/09/12 06:58:52;;;;;;;1999.90;999.90;;;16.00;99.90;;;;;;5033676;28;21016;-68
2022/09/12 07:01:23;;;;;;;1999.90;999.90;;;16.00;99.90;;;;;;5034130;28;20556;-68
2022/09/12 07:03:51;;;;;;;1999.90;999.90;;;16.00;99.90;;;;;;5033759;28;20418;-68
2022/09/12 07:06:19;;;;;;;1999.90;999.90;;;16.10;99.90;;;;;;5032041;28;20442;-67
2022/09/12 07:08:45;;;;;;;1999.90;999.90;;;16.20;99.90;;;;;;5033551;28;20440;-67
2022/09/12 07:11:16;;;;;;;1999.90;999.90;;;16.30;99.90;;;;;;5037209;28;20417;-69
2022/09/12 07:13:44;;;;;;;1999.90;999.90;;;16.30;99.90;;;;;;5043423;28;20419;-68
2022/09/12 07:16:10;;;;;;;1999.90;999.90;;;16.40;99.90;;;;;;5031840;28;20548;-68
2022/09/12 07:18:38;;;;;;;1999.90;999.90;;;16.50;99.90;;;;;;5033295;28;20466;-69
2022/09/12 07:21:05;;;;;;;1999.90;999.90;;;16.60;99.90;;;;;;5040082;28;20470;-69
2022/09/12 07:23:31;;;;;;;1999.90;999.90;;;16.60;99.90;;;;;;5045531;28;20457;-69
2022/09/12 07:25:59;;;;;;;1999.90;999.90;;;16.70;99.90;;;;;;5043375;28;20449;-69
2022/09/12 07:28:27;;;;;;;1999.90;999.90;;;16.80;99.90;;;;;;5046082;28;20181;-69
2022/09/12 07:30:53;;;;;;;1999.90;999.90;;;16.90;99.90;;;;;;5043945;28;20411;-68
2022/09/12 07:33:20;;;;;;;1999.90;999.90;;;16.90;99.90;;;;;;5033253;28;20439;-67
2022/09/12 07:35:46;;;;;;;1999.90;999.90;;;17.10;99.90;;;;;;5030864;28;20450;-69
2022/09/12 07:38:12;;;;;;;1999.90;999.90;;;17.20;99.90;;;;;;5032723;28;20492;-67
2022/09/12 07:40:37;;;;;;;1999.90;999.90;;;17.40;99.90;;;;;;5028927;28;20194;-69
2022/09/12 07:43:03;;;;;;;1999.90;999.90;;;17.50;99.90;;;;;;5043173;28;20173;-69
2022/09/12 07:45:28;;;;;;;1999.90;999.90;;;17.70;99.90;;;;;;5040462;28;20209;-69
2022/09/12 07:47:54;;;;;;;1999.90;999.90;;;17.80;99.90;;;;;;5036978;28;20172;-69
2022/09/12 07:50:20;;;;;;;1999.90;999.90;;;18.00;99.90;;;;;;5032864;28;20319;-69
2022/09/12 07:52:46;;;;;;;1999.90;999.90;;;18.10;99.90;;;;;;5033198;28;20179;-68
2022/09/12 07:55:11;;;;;;;1999.90;999.90;;;18.20;99.90;;;;;;5035200;28;20197;-69
2022/09/12 07:57:37;;;;;;;1999.90;999.90;;;18.20;99.90;;;;;;5041077;28;20434;-69
2022/09/12 08:00:04;;;;;;;1999.90;999.90;;;18.30;99.90;;;;;;5040071;28;20263;-69
2022/09/12 08:02:30;;;;;;;1999.90;999.90;;;18.30;99.90;;;;;;5042003;28;20223;-69
2022/09/12 08:04:55;;;;;;;1999.90;999.90;;;18.40;99.90;;;;;;5039348;28;20457;-68
2022/09/12 08:07:21;;;;;;;1999.90;999.90;;;18.50;99.90;;;;;;5031984;28;20217;-68
2022/09/12 08:09:47;;;;;;;1999.90;999.90;;;18.50;99.90;;;;;;5032315;28;20182;-71
2022/09/12 08:12:13;;;;;;;1999.90;999.90;;;18.60;99.90;;;;;;5032570;28;20620;-67
2022/09/12 08:14:39;;;;;;;1999.90;999.90;;;18.70;99.90;;;;;;5031296;28;20186;-70
2022/09/12 08:17:05;;;;;;;1999.90;999.90;;;18.80;99.90;;;;;;5031485;28;20847;-67
2022/09/12 08:19:31;;;;;;;1999.90;999.90;;;18.90;99.90;;;;;;5032076;28;20193;-67
2022/09/12 08:21:57;;;;;;;1999.90;999.90;;;19.00;99.90;;;;;;5032126;28;20414;-67
2022/09/12 08:24:23;;;;;;;1999.90;999.90;;;19.10;99.90;;;;;;5032302;28;20180;-67
2022/09/12 08:26:49;;;;;;;1999.90;999.90;;;19.10;99.90;;;;;;5030296;28;20256;-67
2022/09/12 08:29:15;;;;;;;1999.90;999.90;;;19.10;99.90;;;;;;5032117;28;20425;-68
2022/09/12 08:31:41;;;;;;;1999.90;999.90;;;19.10;99.90;;;;;;5032310;28;20178;-68
2022/09/12 08:34:07;;;;;;;1999.90;999.90;;;19.20;99.90;;;;;;5018075;28;20171;-69
2022/09/12 08:36:33;;;;;;;1999.90;999.90;;;19.30;99.90;;;;;;5030046;28;20974;-69
2022/09/12 08:39:02;;;;;;;1999.90;999.90;;;19.30;99.90;;;;;;5031306;28;20579;-67
2022/09/12 08:41:30;;;;;;;1999.90;999.90;;;19.40;99.90;;;;;;5031063;28;20422;-67
2022/09/12 08:44:13;;;;;;;1999.90;999.90;;;19.40;99.90;;;;;;5031638;28;20499;-67
2022/09/12 08:46:54;;;;;;;1999.90;999.90;;;19.50;99.90;;;;;;5033980;28;20538;-69
2022/09/12 08:49:33;;;;;;;1999.90;999.90;;;19.60;99.90;;;;;;5034350;28;20433;-68
2022/09/12 08:52:06;;;;;;;1999.90;999.90;;;19.70;99.90;;;;;;5032541;28;20419;-69
2022/09/12 08:54:32;;;;;;;1999.90;999.90;;;19.80;99.90;;;;;;5031538;28;20425;-69
2022/09/12 08:57:03;;;;;;;1999.90;999.90;;;19.90;99.90;;;;;;5029502;28;20438;-69
2022/09/12 08:59:39;;;;;;;1999.90;999.90;;;20.10;99.90;;;;;;5031377;28;20472;-67
2022/09/12 09:02:38;;;;;;;1999.90;999.90;;;20.20;99.90;;;;;;5031455;28;20429;-68
2022/09/12 09:05:20;;;;;;;1999.90;999.90;;;20.20;99.90;;;;;;5030078;28;20449;-71
2022/09/12 09:08:09;;;;;;;1999.90;999.90;;;20.30;99.90;;;;;;5037820;28;20436;-69
2022/09/12 09:11:13;;;;;;;1999.90;999.90;;;20.30;99.90;;;;;;5041077;28;20495;-69
2022/09/12 09:16:55;;;;;;;1999.90;999.90;;;20.40;99.90;;;;;;5017325;28;20430;-69
2022/09/12 09:19:31;;;;;;;1999.90;999.90;;;20.50;99.90;;;;;;5035294;28;20490;-68
2022/09/12 09:22:02;;;;;;;1999.90;999.90;;;20.70;99.90;;;;;;5031190;28;20414;-68
2022/09/12 09:24:40;;;;;;;1999.90;999.90;;;20.70;99.90;;;;;;5031236;28;20422;-68
2022/09/12 09:27:34;;;;;;;1999.90;999.90;;;20.90;99.90;;;;;;5030503;28;20493;-68
2022/09/12 09:30:01;;;;;;;1999.90;999.90;;;21.10;99.90;;;;;;5031256;28;20451;-69
2022/09/12 09:32:32;;;;;;;1999.90;999.90;;;21.20;99.90;;;;;;5029779;28;20416;-67
2022/09/12 09:34:59;;;;;;;1999.90;999.90;;;21.40;99.90;;;;;;5031155;28;20542;-68
2022/09/12 09:37:30;;;;;;;1999.90;999.90;;;21.50;99.90;;;;;;5031585;28;20434;-68
2022/09/12 09:40:14;;;;;;;1999.90;999.90;;;21.60;99.90;;;;;;5024278;28;20932;-69
2022/09/12 09:42:47;;;;;;;1999.90;999.90;;;21.70;99.90;;;;;;5033906;28;20403;-69
2022/09/12 09:45:16;;;;;;;1999.90;999.90;;;21.80;99.90;;;;;;5030041;28;20446;-67
2022/09/12 09:47:50;;;;;;;1999.90;999.90;;;21.90;99.90;;;;;;5030125;28;20505;-68
2022/09/12 09:50:16;;;;;;;1999.90;999.90;;;22.00;99.90;;;;;;5031088;28;20413;-68
2022/09/12 09:52:43;;;;;;;1999.90;999.90;;;22.10;99.90;;;;;;5031070;28;20411;-69
2022/09/12 09:55:19;;;;;;;1999.90;999.90;;;22.20;99.90;;;;;;5029218;28;20207;-70
2022/09/12 09:57:46;;;;;;;1999.90;999.90;;;22.40;99.90;;;;;;5028044;28;20899;-68
2022/09/12 10:00:25;;;;;;;1999.90;999.90;;;22.50;99.90;;;;;;5033532;28;20928;-68
2022/09/12 10:03:27;;;;;;;1999.90;999.90;;;22.70;99.90;;;;;;5034154;28;20415;-67
2022/09/12 10:05:59;;;;;;;1999.90;999.90;;;22.80;99.90;;;;;;5029144;28;20506;-67
2022/09/12 10:08:30;;;;;;;1999.90;999.90;;;23.00;99.90;;;;;;5034185;28;20441;-68
2022/09/12 10:11:03;;;;;;;1999.90;999.90;;;23.00;99.90;;;;;;5033718;28;20423;-70
2022/09/12 10:13:40;;;;;;;1999.90;999.90;;;23.10;99.90;;;;;;5034421;28;20436;-68
2022/09/12 10:16:28;;;;;;;1999.90;999.90;;;23.20;99.90;;;;;;5025775;28;20453;-68
2022/09/12 10:18:55;;;;;;;1999.90;999.90;;;23.40;99.90;;;;;;5034005;28;20983;-69
2022/09/12 10:21:39;;;;;;;1999.90;999.90;;;23.60;99.90;;;;;;5028893;28;20568;-67
2022/09/12 10:24:35;;;;;;;1999.90;999.90;;;23.60;99.90;;;;;;5034214;28;20410;-69
2022/09/12 10:27:12;;;;;;;1999.90;999.90;;;23.80;99.90;;;;;;5032872;28;20906;-69
2022/09/12 10:29:47;;;;;;;1999.90;999.90;;;23.90;99.90;;;;;;5024722;28;20854;-68
2022/09/12 10:32:36;;;;;;;1999.90;999.90;;;24.00;99.90;;;;;;5026435;28;20574;-68
2022/09/12 10:35:07;;;;;;;1999.90;999.90;;;24.20;99.90;;;;;;5019916;28;20444;-68
2022/09/12 10:37:37;;;;;;;1999.90;999.90;;;24.40;99.90;;;;;;5033524;28;20411;-68
2022/09/12 10:40:06;;;;;;;1999.90;999.90;;;24.40;99.90;;;;;;5033069;28;20458;-68
2022/09/12 10:42:41;;;;;;;1999.90;999.90;;;24.50;99.90;;;;;;5033903;28;20871;-68
2022/09/12 10:45:19;;;;;;;1999.90;999.90;;;24.50;99.90;;;;;;5032123;28;20464;-68
2022/09/12 10:47:46;;;;;;;1999.90;999.90;;;24.50;99.90;;;;;;5030280;28;20385;-68
2022/09/12 10:50:42;;;;;;;1999.90;999.90;;;24.70;99.90;;;;;;5033843;28;20432;-69
2022/09/12 10:53:27;;;;;;;1999.90;999.90;;;24.60;99.90;;;;;;5017676;28;20410;-69
2022/09/12 10:56:09;;;;;;;1999.90;999.90;;;24.80;99.90;;;;;;5030002;28;20457;-68
2022/09/12 10:58:58;;;;;;;1999.90;999.90;;;24.90;99.90;;;;;;5033207;28;20468;-69
2022/09/12 11:01:40;;;;;;;1999.90;999.90;;;25.10;99.90;;;;;;5027266;28;20370;-69
2022/09/12 11:04:36;;;;;;;1999.90;999.90;;;25.00;99.90;;;;;;5021843;28;20377;-69
2022/09/12 11:07:05;;;;;;;1999.90;999.90;;;25.00;99.90;;;;;;5032266;28;20378;-69
2022/09/12 11:09:37;;;;;;;1999.90;999.90;;;25.10;99.90;;;;;;5032247;28;20389;-69
2022/09/12 11:12:23;;;;;;;1999.90;999.90;;;25.20;99.90;;;;;;5032678;28;20403;-69
2022/09/12 11:15:01;;;;;;;1999.90;999.90;;;25.30;99.90;;;;;;5031949;28;20409;-69
2022/09/12 11:17:38;;;;;;;1999.90;999.90;;;25.40;99.90;;;;;;5032199;28;20400;-68
2022/09/12 11:20:24;;;;;;;1999.90;999.90;;;25.50;99.90;;;;;;5033033;28;20490;-67
2022/09/12 11:23:22;;;;;;;1999.90;999.90;;;25.60;99.90;;;;;;5032804;28;20400;-69
2022/09/12 11:26:12;;;;;;;1999.90;999.90;;;25.90;99.90;;;;;;5029029;28;20413;-68
2022/09/12 11:28:57;;;;;;;1999.90;999.90;;;25.90;99.90;;;;;;5032777;28;20401;-72
2022/09/12 11:31:28;;;;;;;1999.90;999.90;;;26.10;99.90;;;;;;5026664;28;20382;-69
2022/09/12 11:33:58;;;;;;;1999.90;999.90;;;26.30;99.90;;;;;;5032753;28;20434;-69
2022/09/12 11:36:26;;;;;;;1999.90;999.90;;;26.50;99.90;;;;;;5031079;28;20964;-69
2022/09/12 11:39:04;;;;;;;1999.90;999.90;;;26.60;99.90;;;;;;5032127;28;20455;-69
2022/09/12 11:41:34;;;;;;;1999.90;999.90;;;26.90;99.30;;;;;;5027660;28;20751;-69
2022/09/12 11:44:21;;;;;;;1999.90;999.90;;;27.50;97.50;;;;;;5032778;28;20492;-69
2022/09/12 11:46:48;;;;;;;1999.90;999.90;;;28.10;92.60;;;;;;5030055;28;20788;-68
2022/09/12 11:49:39;;;;;;;1999.90;999.90;;;28.60;84.60;;;;;;5022886;28;20400;-68
2022/09/12 11:52:22;;;;;;;1999.90;999.90;;;29.30;80.50;;;;;;5016828;28;20472;-68
2022/09/12 11:55:06;;;;;;;1999.90;999.90;;;30.10;74.10;;;;;;5030491;28;20436;-68
2022/09/12 11:57:43;;;;;;;1999.90;999.90;;;31.00;65.30;;;;;;5036065;28;20813;-68
2022/09/12 12:00:41;;;;;;;1999.90;999.90;;;31.90;56.80;;;;;;5031808;28;20455;-70
2022/09/12 12:03:31;;;;;;;1999.90;999.90;;;32.60;50.70;;;;;;5020886;28;20784;-69
2022/09/12 12:06:20;;;;;;;1999.90;999.90;;;33.40;44.00;;;;;;5029251;28;20478;-70
2022/09/12 12:08:46;;;;;;;1999.90;999.90;;;34.00;39.10;;;;;;5031333;28;20426;-69
2022/09/12 12:11:15;;;;;;;1999.90;999.90;;;34.30;33.90;;;;;;5032098;28;20411;-70
2022/09/12 12:13:55;;;;;;;1999.90;999.90;;;34.50;30.00;;;;;;5032078;28;20496;-70
2022/09/12 12:16:27;;;;;;;1999.90;999.90;;;34.80;29.20;;;;;;5024968;28;20568;-70
2022/09/12 12:18:59;;;;;;;1999.90;999.90;;;35.20;27.80;;;;;;5032039;28;20979;-70
2022/09/12 12:21:34;;;;;;;1999.90;999.90;;;34.90;24.10;;;;;;5026019;28;20407;-70
2022/09/12 12:24:08;;;;;;;1999.90;999.90;;;35.10;24.70;;;;;;5031515;28;20796;-70
2022/09/12 12:26:43;;;;;;;1999.90;999.90;;;35.60;25.10;;;;;;5030207;28;20439;-69